Time;durP1;ratioP1;P1;durP2;ratioP2;P2;SDS_P1;SDS_P2;PMS_P1;PMS_P2;Temp;Humidity;BMP_temperature;BMP_pressure;BME280_temperature;BME280_humidity;BME280_pressure;Samples;Min_cycle;Max_cycle;Signal;HPM_P1;HPM_P2
2023/04/06 00:00:25;;;;;;;11.68;4.70;;;;;;;;;;4975500;28;20390;-71
2023/04/06 00:02:52;;;;;;;12.02;4.68;;;;;;;;;;4996436;28;20061;-71
2023/04/06 00:05:18;;;;;;;11.75;5.22;;;;;;;;;;4987644;28;20061;-73
2023/04/06 00:07:45;;;;;;;11.57;4.70;;;;;;;;;;4970714;28;20069;-70
2023/04/06 00:10:12;;;;;;;11.45;5.13;;;;;;;;;;4973293;28;20119;-71
2023/04/06 00:12:38;;;;;;;12.27;4.55;;;;;;;;;;4975647;28;20058;-71
2023/04/06 00:15:06;;;;;;;11.98;4.70;;;;;;;;;;4977057;28;20405;-71
2023/04/06 00:17:35;;;;;;;11.48;5.35;;;;;;;;;;4984000;28;20065;-71
2023/04/06 00:20:01;;;;;;;10.30;4.38;;;;;;;;;;4981489;28;20050;-71
2023/04/06 00:22:28;;;;;;;10.50;4.20;;;;;;;;;;4955260;28;20118;-72
2023/04/06 00:24:55;;;;;;;10.85;4.88;;;;;;;;;;4975354;28;20058;-71
2023/04/06 00:27:21;;;;;;;10.13;4.53;;;;;;;;;;4969284;28;20058;-71
2023/04/06 00:29:48;;;;;;;10.63;4.70;;;;;;;;;;4969192;28;20061;-72
2023/04/06 00:32:15;;;;;;;11.50;4.80;;;;;;;;;;4976026;28;20141;-71
2023/04/06 00:34:43;;;;;;;11.98;4.25;;;;;;;;;;4976492;28;20058;-71
2023/04/06 00:37:09;;;;;;;10.52;4.40;;;;;;;;;;4981494;28;20081;-70
2023/04/06 00:39:36;;;;;;;10.90;4.60;;;;;;;;;;4972030;28;20053;-72
2023/04/06 00:42:08;;;;;;;10.75;4.38;;;;;;;;;;4985390;28;20173;-71
2023/04/06 00:44:34;;;;;;;11.32;4.82;;;;;;;;;;4999650;28;20050;-71
2023/04/06 00:47:01;;;;;;;12.35;4.47;;;;;;;;;;4996324;28;20527;-70
2023/04/06 00:49:27;;;;;;;10.43;4.43;;;;;;;;;;4992272;28;20157;-71
2023/04/06 00:51:56;;;;;;;9.35;4.53;;;;;;;;;;4991515;28;20065;-72
2023/04/06 00:54:22;;;;;;;11.25;4.38;;;;;;;;;;4979575;28;20065;-71
2023/04/06 00:56:49;;;;;;;11.10;4.47;;;;;;;;;;4981633;28;20046;-71
2023/04/06 00:59:16;;;;;;;12.90;5.10;;;;;;;;;;4998594;28;20069;-69
2023/04/06 01:01:43;;;;;;;11.68;4.53;;;;;;;;;;4989652;28;20054;-69
2023/04/06 01:04:10;;;;;;;10.98;4.25;;;;;;;;;;4996412;28;20077;-69
2023/04/06 01:06:36;;;;;;;10.13;4.45;;;;;;;;;;5003473;28;20080;-70
2023/04/06 01:09:04;;;;;;;10.07;4.38;;;;;;;;;;4981801;28;20141;-71
2023/04/06 01:11:31;;;;;;;10.15;4.35;;;;;;;;;;4975319;28;20054;-69
2023/04/06 01:13:57;;;;;;;9.35;4.32;;;;;;;;;;4989339;28;20064;-69
2023/04/06 01:16:24;;;;;;;10.75;4.68;;;;;;;;;;4998353;28;20070;-70
2023/04/06 01:18:51;;;;;;;9.18;4.60;;;;;;;;;;4994929;28;20050;-70
2023/04/06 01:21:18;;;;;;;9.73;4.35;;;;;;;;;;4988843;28;20150;-69
2023/04/06 01:23:46;;;;;;;11.25;4.40;;;;;;;;;;4979362;28;20118;-69
2023/04/06 01:26:13;;;;;;;13.10;4.30;;;;;;;;;;4992977;28;20065;-70
2023/04/06 01:28:40;;;;;;;8.40;4.20;;;;;;;;;;4986207;28;20049;-70
2023/04/06 01:31:07;;;;;;;9.43;3.92;;;;;;;;;;4999013;28;20058;-70
2023/04/06 01:33:34;;;;;;;9.93;4.32;;;;;;;;;;5002044;28;20096;-71
2023/04/06 01:36:01;;;;;;;11.98;4.30;;;;;;;;;;4979454;28;20077;-70
2023/04/06 01:38:27;;;;;;;8.50;4.03;;;;;;;;;;4979597;28;20157;-70
2023/04/06 01:40:56;;;;;;;10.98;4.78;;;;;;;;;;4999622;28;20053;-69
2023/04/06 01:43:23;;;;;;;10.32;4.15;;;;;;;;;;4990688;28;20060;-69
2023/04/06 01:45:50;;;;;;;8.45;3.90;;;;;;;;;;4998186;28;20054;-70
2023/04/06 01:48:16;;;;;;;10.13;4.35;;;;;;;;;;5000065;28;20053;-69
2023/04/06 01:50:43;;;;;;;8.10;4.03;;;;;;;;;;4994864;28;20070;-70
2023/04/06 01:53:10;;;;;;;9.73;4.28;;;;;;;;;;4998697;28;20049;-70
2023/04/06 01:55:36;;;;;;;10.13;4.18;;;;;;;;;;4982761;28;20057;-70
2023/04/06 01:58:04;;;;;;;11.65;4.95;;;;;;;;;;4993706;28;20065;-70
2023/04/06 02:00:31;;;;;;;11.20;4.30;;;;;;;;;;4993879;28;20060;-70
2023/04/06 02:02:58;;;;;;;9.45;4.00;;;;;;;;;;4962938;28;20062;-71
2023/04/06 02:05:26;;;;;;;10.75;4.35;;;;;;;;;;4976107;28;20069;-69
2023/04/06 02:07:52;;;;;;;9.25;4.22;;;;;;;;;;4996509;28;20064;-70
2023/04/06 02:10:19;;;;;;;8.70;3.67;;;;;;;;;;4968318;28;20050;-70
2023/04/06 02:12:45;;;;;;;10.57;4.30;;;;;;;;;;4979288;28;20297;-69
2023/04/06 02:15:14;;;;;;;10.80;4.35;;;;;;;;;;4975153;28;20046;-70
2023/04/06 02:17:41;;;;;;;10.10;4.43;;;;;;;;;;4996658;28;20054;-69
2023/04/06 02:20:08;;;;;;;10.15;3.97;;;;;;;;;;4953684;28;21003;-70
2023/04/06 02:22:35;;;;;;;9.27;4.20;;;;;;;;;;4977459;28;20073;-69
2023/04/06 02:25:02;;;;;;;11.38;4.97;;;;;;;;;;4975211;28;20153;-70
2023/04/06 02:27:29;;;;;;;8.50;4.03;;;;;;;;;;4959069;28;20063;-70
2023/04/06 02:30:04;;;;;;;10.45;4.05;;;;;;;;;;4958962;28;20059;-69
2023/04/06 02:32:33;;;;;;;9.75;3.78;;;;;;;;;;4969684;28;20141;-70
2023/04/06 02:35:00;;;;;;;9.05;3.83;;;;;;;;;;4997650;28;20112;-70
2023/04/06 02:37:26;;;;;;;9.05;4.07;;;;;;;;;;4980934;28;20078;-71
2023/04/06 02:39:53;;;;;;;9.40;4.20;;;;;;;;;;4980194;28;20050;-70
2023/04/06 02:42:20;;;;;;;10.73;4.18;;;;;;;;;;4982214;28;20054;-69
2023/04/06 02:44:46;;;;;;;8.48;3.83;;;;;;;;;;5005727;28;20050;-69
2023/04/06 02:47:13;;;;;;;9.73;4.13;;;;;;;;;;4993104;28;20270;-71
2023/04/06 02:49:41;;;;;;;12.27;4.72;;;;;;;;;;4998483;28;20058;-70
2023/04/06 02:52:07;;;;;;;9.35;3.92;;;;;;;;;;4985457;28;20077;-70
2023/04/06 02:54:34;;;;;;;10.73;3.70;;;;;;;;;;5011636;28;20564;-70
2023/04/06 02:57:01;;;;;;;11.05;4.20;;;;;;;;;;4988653;28;20058;-69
2023/04/06 02:59:27;;;;;;;12.48;5.05;;;;;;;;;;4977549;28;20058;-70
2023/04/06 03:01:54;;;;;;;11.90;4.40;;;;;;;;;;4976255;28;20065;-69
2023/04/06 03:04:22;;;;;;;9.52;4.13;;;;;;;;;;4990601;28;20049;-70
2023/04/06 03:06:50;;;;;;;9.32;4.28;;;;;;;;;;4994926;28;20054;-70
2023/04/06 03:09:17;;;;;;;10.63;4.80;;;;;;;;;;4986022;28;20246;-69
2023/04/06 03:11:44;;;;;;;10.63;4.63;;;;;;;;;;4987722;28;20054;-70
2023/04/06 03:14:11;;;;;;;8.82;4.35;;;;;;;;;;4985357;28;20054;-69
2023/04/06 03:16:37;;;;;;;11.60;4.43;;;;;;;;;;4996251;28;20052;-70
2023/04/06 03:19:04;;;;;;;11.38;4.72;;;;;;;;;;4993445;28;20052;-69
2023/04/06 03:21:30;;;;;;;11.63;4.60;;;;;;;;;;5011861;28;20068;-69
2023/04/06 03:23:59;;;;;;;11.70;4.35;;;;;;;;;;4992748;28;20141;-70
2023/04/06 03:26:26;;;;;;;11.70;4.50;;;;;;;;;;4982668;28;20062;-70
2023/04/06 03:28:52;;;;;;;11.93;4.47;;;;;;;;;;4986162;28;20058;-71
2023/04/06 03:31:19;;;;;;;12.13;4.60;;;;;;;;;;4996336;28;20058;-70
2023/04/06 03:33:45;;;;;;;11.40;4.70;;;;;;;;;;5000385;28;20055;-69
2023/04/06 03:36:15;;;;;;;10.45;4.43;;;;;;;;;;4968853;28;20224;-69
2023/04/06 03:38:41;;;;;;;11.35;4.43;;;;;;;;;;4980238;28;20374;-71
2023/04/06 03:41:09;;;;;;;9.70;3.97;;;;;;;;;;4995399;28;20054;-70
2023/04/06 03:43:36;;;;;;;9.15;3.90;;;;;;;;;;4992904;28;20049;-70
2023/04/06 03:46:03;;;;;;;10.80;4.45;;;;;;;;;;4991413;28;20076;-71
2023/04/06 03:48:30;;;;;;;10.75;3.95;;;;;;;;;;4986796;28;20164;-68
2023/04/06 03:50:56;;;;;;;10.50;4.45;;;;;;;;;;4989366;28;20050;-69
2023/04/06 03:53:23;;;;;;;9.40;3.92;;;;;;;;;;4975591;28;20137;-71
2023/04/06 03:55:50;;;;;;;11.93;4.97;;;;;;;;;;4974930;28;20092;-71
2023/04/06 03:58:20;;;;;;;10.88;4.03;;;;;;;;;;4978423;28;20057;-69
2023/04/06 04:00:46;;;;;;;13.57;4.85;;;;;;;;;;4991546;28;20104;-70
2023/04/06 04:03:13;;;;;;;13.85;4.43;;;;;;;;;;4994474;28;20061;-70
2023/04/06 04:05:40;;;;;;;9.20;4.32;;;;;;;;;;4991639;28;20061;-70
2023/04/06 04:08:06;;;;;;;10.55;4.20;;;;;;;;;;4987979;28;20227;-70
2023/04/06 04:10:33;;;;;;;11.77;4.45;;;;;;;;;;4983898;28;20055;-69
2023/04/06 04:12:59;;;;;;;11.35;5.15;;;;;;;;;;5013585;28;20073;-70
2023/04/06 04:15:28;;;;;;;10.50;4.20;;;;;;;;;;5002631;28;20054;-70
2023/04/06 04:17:54;;;;;;;12.02;4.63;;;;;;;;;;5004303;28;20058;-69
2023/04/06 04:20:21;;;;;;;9.20;3.97;;;;;;;;;;4991519;28;20050;-69
2023/04/06 04:22:48;;;;;;;13.23;4.57;;;;;;;;;;5000285;28;20058;-69
2023/04/06 04:25:15;;;;;;;12.77;5.00;;;;;;;;;;4996598;28;20061;-70
2023/04/06 04:27:41;;;;;;;10.35;4.45;;;;;;;;;;5000540;28;20062;-71
2023/04/06 04:30:09;;;;;;;11.65;4.55;;;;;;;;;;5009375;28;20089;-70
2023/04/06 04:32:37;;;;;;;11.50;4.60;;;;;;;;;;4999400;28;20054;-69
2023/04/06 04:35:04;;;;;;;9.75;4.70;;;;;;;;;;4996655;28;20077;-71
2023/04/06 04:37:30;;;;;;;10.77;4.40;;;;;;;;;;4985595;28;20137;-70
2023/04/06 04:39:59;;;;;;;10.50;4.63;;;;;;;;;;4980265;28;20057;-69
2023/04/06 04:42:26;;;;;;;11.30;4.80;;;;;;;;;;4990050;28;20058;-70
2023/04/06 04:44:53;;;;;;;11.05;4.75;;;;;;;;;;4999530;28;20081;-69
2023/04/06 04:47:19;;;;;;;10.35;5.00;;;;;;;;;;4995551;28;20093;-69
2023/04/06 04:49:47;;;;;;;13.05;5.35;;;;;;;;;;5005989;28;20054;-70
2023/04/06 04:52:14;;;;;;;10.15;4.60;;;;;;;;;;4982853;28;20073;-69
2023/04/06 04:54:49;;;;;;;9.98;4.70;;;;;;;;;;4999875;28;20050;-70
2023/04/06 04:57:15;;;;;;;12.70;5.38;;;;;;;;;;4985824;28;20133;-69
2023/04/06 04:59:42;;;;;;;12.95;5.18;;;;;;;;;;4984401;28;20058;-70
2023/04/06 05:02:08;;;;;;;11.02;4.88;;;;;;;;;;4986418;28;20057;-70
2023/04/06 05:04:38;;;;;;;11.70;4.55;;;;;;;;;;5001443;28;20483;-68
2023/04/06 05:07:07;;;;;;;11.77;5.22;;;;;;;;;;4987991;28;20049;-69
2023/04/06 05:09:33;;;;;;;12.48;5.30;;;;;;;;;;4964948;28;20055;-70
2023/04/06 05:12:00;;;;;;;14.57;5.22;;;;;;;;;;5013405;28;20049;-69
2023/04/06 05:14:27;;;;;;;11.52;5.10;;;;;;;;;;5014292;28;20066;-70
2023/04/06 05:16:54;;;;;;;12.48;5.40;;;;;;;;;;4980623;28;20057;-70
2023/04/06 05:19:21;;;;;;;10.73;4.65;;;;;;;;;;4989716;28;20161;-69
2023/04/06 05:21:48;;;;;;;10.95;4.55;;;;;;;;;;4984509;28;20053;-69
2023/04/06 05:24:16;;;;;;;12.52;5.35;;;;;;;;;;4990688;28;20053;-70
2023/04/06 05:26:42;;;;;;;13.93;5.63;;;;;;;;;;4980237;28;20061;-70
2023/04/06 05:29:11;;;;;;;12.25;5.03;;;;;;;;;;4990675;28;20050;-70
2023/04/06 05:31:40;;;;;;;11.52;4.78;;;;;;;;;;4995032;28;20061;-70
2023/04/06 05:34:10;;;;;;;13.02;5.25;;;;;;;;;;4980861;28;20061;-71
2023/04/06 05:36:36;;;;;;;11.48;5.20;;;;;;;;;;4992031;28;20050;-69
2023/04/06 05:39:03;;;;;;;14.13;5.50;;;;;;;;;;4976652;28;20058;-70
2023/04/06 05:41:31;;;;;;;13.43;5.85;;;;;;;;;;4979082;28;20319;-69
2023/04/06 05:44:01;;;;;;;11.00;4.40;;;;;;;;;;4973316;28;20054;-72
2023/04/06 05:46:27;;;;;;;15.57;4.95;;;;;;;;;;4975557;28;20117;-72
2023/04/06 05:49:03;;;;;;;13.48;5.82;;;;;;;;;;4987545;28;20054;-71
2023/04/06 05:51:31;;;;;;;14.60;5.65;;;;;;;;;;5000658;28;20061;-72
2023/04/06 05:54:03;;;;;;;11.95;5.78;;;;;;;;;;4991598;28;20056;-71
2023/04/06 05:56:31;;;;;;;13.68;5.60;;;;;;;;;;4998632;28;20061;-71
2023/04/06 05:58:58;;;;;;;11.65;5.43;;;;;;;;;;4980673;28;20133;-72
2023/04/06 06:01:25;;;;;;;12.35;5.18;;;;;;;;;;4986728;28;20054;-72
2023/04/06 06:03:53;;;;;;;12.40;5.25;;;;;;;;;;4994046;28;20050;-71
2023/04/06 06:06:23;;;;;;;13.52;5.72;;;;;;;;;;4962274;28;20053;-72
2023/04/06 06:08:50;;;;;;;15.68;5.90;;;;;;;;;;4980949;28;20109;-72
2023/04/06 06:11:20;;;;;;;11.77;5.45;;;;;;;;;;4969160;28;20069;-72
2023/04/06 06:13:48;;;;;;;14.27;6.03;;;;;;;;;;4979154;28;20073;-71
2023/04/06 06:16:15;;;;;;;12.55;5.55;;;;;;;;;;4979954;28;20084;-73
2023/04/06 06:18:42;;;;;;;12.77;5.45;;;;;;;;;;4998429;28;20081;-72
2023/04/06 06:21:09;;;;;;;17.42;6.00;;;;;;;;;;4960295;28;20062;-72
2023/04/06 06:23:35;;;;;;;15.52;6.50;;;;;;;;;;4982546;28;20046;-71
2023/04/06 06:26:07;;;;;;;13.88;5.70;;;;;;;;;;5003947;28;20058;-72
2023/04/06 06:28:37;;;;;;;15.30;6.18;;;;;;;;;;4997249;28;20054;-73
2023/04/06 06:31:05;;;;;;;18.85;6.50;;;;;;;;;;5005818;28;20135;-73
2023/04/06 06:33:31;;;;;;;15.75;5.93;;;;;;;;;;4977749;28;20058;-71
2023/04/06 06:36:01;;;;;;;16.55;7.03;;;;;;;;;;5001830;28;20133;-71
2023/04/06 06:38:28;;;;;;;15.40;6.30;;;;;;;;;;4976593;28;21332;-73
2023/04/06 06:40:54;;;;;;;15.80;6.38;;;;;;;;;;4975082;28;20065;-73
2023/04/06 06:43:21;;;;;;;16.00;6.38;;;;;;;;;;4986487;28;20054;-73
2023/04/06 06:45:50;;;;;;;16.27;7.07;;;;;;;;;;4989170;28;20054;-71
2023/04/06 06:48:16;;;;;;;;;;;;;;;;;;4972333;28;20056;-71
2023/04/06 06:50:45;;;;;;;12.40;5.97;;;;;;;;;;5011131;28;20498;-70
2023/04/06 06:53:11;;;;;;;13.18;6.03;;;;;;;;;;4989503;28;20056;-71
2023/04/06 06:55:38;;;;;;;17.65;6.93;;;;;;;;;;4992043;28;20079;-71
2023/04/06 06:58:05;;;;;;;14.85;6.50;;;;;;;;;;4989311;28;20111;-71
2023/04/06 07:00:33;;;;;;;15.35;7.13;;;;;;;;;;4987283;28;20057;-72
2023/04/06 07:03:06;;;;;;;17.25;7.00;;;;;;;;;;4980447;28;20080;-72
2023/04/06 07:05:32;;;;;;;14.65;6.40;;;;;;;;;;4985136;28;20082;-73
2023/04/06 07:08:05;;;;;;;16.77;7.43;;;;;;;;;;4983903;28;20046;-71
2023/04/06 07:10:35;;;;;;;14.63;6.28;;;;;;;;;;4969694;28;20046;-72
2023/04/06 07:13:09;;;;;;;14.35;6.53;;;;;;;;;;4988806;28;20144;-68
2023/04/06 07:15:38;;;;;;;14.90;7.00;;;;;;;;;;4989754;28;20099;-69
2023/04/06 07:18:07;;;;;;;16.40;7.30;;;;;;;;;;4992090;28;20152;-71
2023/04/06 07:20:34;;;;;;;17.75;7.40;;;;;;;;;;5001541;28;20069;-70
2023/04/06 07:23:02;;;;;;;17.00;7.20;;;;;;;;;;4981709;28;20066;-70
2023/04/06 07:25:31;;;;;;;17.80;7.18;;;;;;;;;;4976891;28;20054;-70
2023/04/06 07:27:58;;;;;;;17.40;7.65;;;;;;;;;;4982376;28;20066;-70
2023/04/06 07:30:28;;;;;;;19.35;8.10;;;;;;;;;;4976090;28;21243;-69
2023/04/06 07:32:58;;;;;;;19.80;7.95;;;;;;;;;;4979998;28;20057;-68
2023/04/06 07:35:27;;;;;;;16.40;7.63;;;;;;;;;;4996046;28;20140;-68
2023/04/06 07:37:54;;;;;;;16.75;7.22;;;;;;;;;;4989714;28;20158;-70
2023/04/06 07:40:20;;;;;;;20.17;7.60;;;;;;;;;;4989728;28;20191;-70
2023/04/06 07:42:50;;;;;;;16.42;7.50;;;;;;;;;;4987001;28;20054;-70
2023/04/06 07:45:16;;;;;;;19.25;8.25;;;;;;;;;;4979934;28;20064;-70
2023/04/06 07:47:46;;;;;;;15.65;7.30;;;;;;;;;;4989712;28;20057;-70
2023/04/06 07:50:12;;;;;;;17.10;7.63;;;;;;;;;;4969741;28;20058;-70
2023/04/06 07:52:39;;;;;;;20.33;8.23;;;;;;;;;;4990997;28;20058;-69
2023/04/06 07:55:08;;;;;;;20.45;8.35;;;;;;;;;;4975881;28;20077;-70
2023/04/06 07:57:35;;;;;;;16.52;7.78;;;;;;;;;;4981709;28;20061;-69
2023/04/06 08:00:05;;;;;;;20.30;7.95;;;;;;;;;;4983961;28;20170;-70
2023/04/06 08:02:32;;;;;;;15.80;7.10;;;;;;;;;;4994268;28;20049;-71
2023/04/06 08:04:59;;;;;;;18.77;8.18;;;;;;;;;;4977079;28;20084;-70
2023/04/06 08:07:28;;;;;;;20.98;7.65;;;;;;;;;;4989739;28;20064;-72
2023/04/06 08:10:01;;;;;;;16.63;7.45;;;;;;;;;;4965926;28;20064;-72
2023/04/06 08:12:30;;;;;;;20.38;8.43;;;;;;;;;;4979996;28;20054;-73
2023/04/06 08:15:00;;;;;;;19.10;8.15;;;;;;;;;;4969689;28;20049;-71
2023/04/06 08:17:30;;;;;;;19.52;8.23;;;;;;;;;;4994644;28;20096;-71
2023/04/06 08:20:07;;;;;;;19.23;8.27;;;;;;;;;;4980858;28;20054;-73
2023/04/06 08:22:33;;;;;;;20.17;7.95;;;;;;;;;;4979462;28;20054;-72
2023/04/06 08:25:00;;;;;;;16.50;7.72;;;;;;;;;;4981767;28;20062;-72
2023/04/06 08:27:34;;;;;;;17.27;7.78;;;;;;;;;;4980985;28;20109;-71
2023/04/06 08:30:03;;;;;;;18.83;8.27;;;;;;;;;;4977461;28;20053;-72
2023/04/06 08:32:31;;;;;;;18.48;8.43;;;;;;;;;;4980882;28;20077;-72
2023/04/06 08:34:58;;;;;;;17.90;7.65;;;;;;;;;;4985131;28;20085;-72
2023/04/06 08:37:25;;;;;;;18.60;7.97;;;;;;;;;;4975628;28;20050;-71
2023/04/06 08:40:02;;;;;;;18.10;8.93;;;;;;;;;;4993128;28;20050;-72
2023/04/06 08:42:32;;;;;;;21.65;8.57;;;;;;;;;;4982922;28;20141;-69
2023/04/06 08:45:00;;;;;;;19.80;8.13;;;;;;;;;;4991814;28;20064;-70
2023/04/06 08:47:27;;;;;;;21.80;8.75;;;;;;;;;;4994599;28;20057;-69
2023/04/06 08:50:00;;;;;;;19.88;8.85;;;;;;;;;;4994688;28;20073;-71
2023/04/06 08:52:30;;;;;;;19.00;8.60;;;;;;;;;;4986661;28;20058;-69
2023/04/06 08:54:58;;;;;;;23.67;9.20;;;;;;;;;;4998953;28;20062;-72
2023/04/06 08:57:26;;;;;;;20.65;9.65;;;;;;;;;;4977015;28;20112;-72
2023/04/06 08:59:54;;;;;;;20.08;8.95;;;;;;;;;;4973475;28;20164;-71
2023/04/06 09:02:21;;;;;;;20.95;9.23;;;;;;;;;;4972541;28;20073;-70
2023/04/06 09:04:52;;;;;;;21.10;9.48;;;;;;;;;;4965942;28;20222;-73
2023/04/06 09:07:20;;;;;;;25.90;9.50;;;;;;;;;;4961426;28;20145;-72
2023/04/06 09:09:49;;;;;;;19.55;9.25;;;;;;;;;;4979943;28;20062;-72
2023/04/06 09:12:26;;;;;;;16.48;8.00;;;;;;;;;;4967623;28;20129;-72
2023/04/06 09:14:55;;;;;;;18.20;8.90;;;;;;;;;;4982037;28;20061;-72
2023/04/06 09:17:25;;;;;;;20.48;8.82;;;;;;;;;;4979387;28;20050;-73
2023/04/06 09:19:59;;;;;;;17.70;8.65;;;;;;;;;;4979360;28;20088;-72
2023/04/06 09:22:35;;;;;;;17.38;8.38;;;;;;;;;;4979569;28;20076;-71
2023/04/06 09:25:02;;;;;;;18.77;8.93;;;;;;;;;;4984663;28;20061;-70
2023/04/06 09:27:35;;;;;;;19.33;9.20;;;;;;;;;;5007372;28;20058;-70
2023/04/06 09:30:07;;;;;;;20.17;9.23;;;;;;;;;;4977655;28;20054;-72
2023/04/06 09:32:45;;;;;;;17.77;8.43;;;;;;;;;;5007137;28;20058;-71
2023/04/06 09:35:15;;;;;;;19.88;9.10;;;;;;;;;;4991366;28;20053;-71
2023/04/06 09:37:45;;;;;;;20.52;9.00;;;;;;;;;;4978086;28;20396;-71
2023/04/06 09:40:25;;;;;;;22.60;9.15;;;;;;;;;;4965483;28;20054;-71
2023/04/06 09:42:54;;;;;;;22.20;9.40;;;;;;;;;;4995399;28;20050;-72
2023/04/06 09:45:20;;;;;;;22.13;9.10;;;;;;;;;;5007330;28;20054;-72
2023/04/06 09:47:47;;;;;;;19.58;8.68;;;;;;;;;;4991879;28;20065;-71
2023/04/06 09:50:15;;;;;;;19.50;9.10;;;;;;;;;;4962974;28;20106;-72
2023/04/06 09:52:53;;;;;;;23.50;9.88;;;;;;;;;;4990011;28;20057;-70
2023/04/06 09:55:25;;;;;;;21.45;9.60;;;;;;;;;;5017843;28;20058;-72
2023/04/06 09:57:59;;;;;;;17.77;9.10;;;;;;;;;;5010515;28;20071;-73
2023/04/06 10:00:29;;;;;;;23.42;9.18;;;;;;;;;;4966240;28;20443;-71
2023/04/06 10:02:59;;;;;;;24.27;10.80;;;;;;;;;;4980651;28;20050;-71
2023/04/06 10:05:34;;;;;;;22.45;9.48;;;;;;;;;;4978481;28;20106;-72
2023/04/06 10:08:09;;;;;;;23.23;9.75;;;;;;;;;;4987286;28;20094;-73
2023/04/06 10:10:40;;;;;;;20.58;9.25;;;;;;;;;;4992419;28;20058;-71
2023/04/06 10:13:10;;;;;;;22.80;9.70;;;;;;;;;;5015915;28;20054;-73
2023/04/06 10:15:39;;;;;;;25.80;10.18;;;;;;;;;;4977826;28;20053;-71
2023/04/06 10:18:07;;;;;;;20.38;9.27;;;;;;;;;;4990264;28;20062;-71
2023/04/06 10:20:37;;;;;;;22.00;9.45;;;;;;;;;;5012247;28;20116;-72
2023/04/06 10:23:14;;;;;;;19.75;9.65;;;;;;;;;;4988748;28;20062;-72
2023/04/06 10:25:43;;;;;;;19.80;9.75;;;;;;;;;;4982916;28;20065;-72
2023/04/06 10:28:12;;;;;;;21.63;9.20;;;;;;;;;;4954236;28;20054;-70
2023/04/06 10:30:59;;;;;;;20.38;9.77;;;;;;;;;;4972720;28;20197;-71
2023/04/06 10:33:29;;;;;;;23.00;10.80;;;;;;;;;;4954425;28;20128;-71
2023/04/06 10:36:03;;;;;;;28.13;9.70;;;;;;;;;;4966408;28;20062;-69
2023/04/06 10:38:39;;;;;;;23.33;9.65;;;;;;;;;;4974127;28;20080;-73
2023/04/06 10:41:06;;;;;;;21.17;9.52;;;;;;;;;;4977686;28;20066;-72
2023/04/06 10:43:34;;;;;;;21.55;9.43;;;;;;;;;;4979143;28;20042;-71
2023/04/06 10:46:15;;;;;;;18.83;9.27;;;;;;;;;;4968228;28;20066;-72
2023/04/06 10:48:42;;;;;;;17.98;8.60;;;;;;;;;;4967733;28;20121;-71
2023/04/06 10:51:10;;;;;;;20.00;9.38;;;;;;;;;;4966517;28;20162;-72
2023/04/06 10:53:42;;;;;;;23.25;9.15;;;;;;;;;;4969983;28;20174;-72
2023/04/06 10:56:11;;;;;;;22.20;9.43;;;;;;;;;;4962367;28;20128;-72
2023/04/06 10:58:47;;;;;;;20.58;10.02;;;;;;;;;;4978965;28;20049;-73
2023/04/06 11:01:17;;;;;;;20.85;9.13;;;;;;;;;;4979573;28;20050;-72
2023/04/06 11:03:54;;;;;;;23.20;9.38;;;;;;;;;;4956934;28;20074;-72
2023/04/06 11:06:23;;;;;;;18.27;8.10;;;;;;;;;;4945151;28;20098;-72
2023/04/06 11:08:55;;;;;;;18.17;8.75;;;;;;;;;;4968591;28;20097;-72
2023/04/06 11:11:22;;;;;;;22.58;9.35;;;;;;;;;;4978286;28;20069;-72
2023/04/06 11:13:57;;;;;;;21.13;8.32;;;;;;;;;;4991909;28;20123;-72
2023/04/06 11:16:25;;;;;;;18.55;8.60;;;;;;;;;;4986636;28;20058;-72
2023/04/06 11:18:52;;;;;;;23.38;8.90;;;;;;;;;;4979920;28;20074;-71
2023/04/06 11:21:40;;;;;;;20.20;8.32;;;;;;;;;;4978135;28;20049;-72
2023/04/06 11:24:11;;;;;;;19.35;8.48;;;;;;;;;;4975464;28;20128;-72
2023/04/06 11:26:38;;;;;;;19.02;8.57;;;;;;;;;;4955881;28;20054;-72
2023/04/06 11:29:08;;;;;;;17.33;7.88;;;;;;;;;;4978667;28;20062;-73
2023/04/06 11:31:38;;;;;;;19.55;8.05;;;;;;;;;;4972666;28;20050;-72
2023/04/06 11:34:09;;;;;;;15.85;7.55;;;;;;;;;;4974388;28;20061;-73
2023/04/06 11:36:39;;;;;;;17.00;7.93;;;;;;;;;;4969119;28;20054;-72
2023/04/06 11:39:06;;;;;;;19.23;7.68;;;;;;;;;;4959507;28;20109;-72
2023/04/06 11:41:35;;;;;;;16.67;7.63;;;;;;;;;;4957684;28;20066;-71
2023/04/06 11:44:08;;;;;;;19.45;7.25;;;;;;;;;;4944790;28;20055;-73
2023/04/06 11:46:36;;;;;;;16.27;7.15;;;;;;;;;;4954223;28;20058;-73
2023/04/06 11:49:03;;;;;;;15.27;6.90;;;;;;;;;;4964154;28;20138;-72
2023/04/06 11:51:32;;;;;;;15.48;7.13;;;;;;;;;;4941269;28;20054;-72
2023/04/06 11:54:03;;;;;;;14.82;6.82;;;;;;;;;;4973655;28;20058;-73
2023/04/06 11:56:30;;;;;;;15.27;6.82;;;;;;;;;;4986328;28;20053;-72
2023/04/06 11:58:59;;;;;;;14.20;6.45;;;;;;;;;;4992044;28;20141;-72
2023/04/06 12:01:26;;;;;;;15.00;6.63;;;;;;;;;;4994951;28;20165;-72
2023/04/06 12:04:00;;;;;;;12.85;6.72;;;;;;;;;;4994731;28;20093;-72
2023/04/06 12:06:28;;;;;;;13.93;6.18;;;;;;;;;;4990297;28;20066;-72
2023/04/06 12:08:55;;;;;;;12.77;5.90;;;;;;;;;;4997887;28;20065;-71
2023/04/06 12:11:24;;;;;;;15.75;6.63;;;;;;;;;;4995056;28;20064;-72
2023/04/06 12:13:51;;;;;;;13.40;6.20;;;;;;;;;;4984511;28;20085;-72
2023/04/06 12:16:19;;;;;;;12.85;6.05;;;;;;;;;;4993893;28;20053;-72
2023/04/06 12:18:46;;;;;;;12.05;5.93;;;;;;;;;;4992072;28;20050;-72
2023/04/06 12:21:13;;;;;;;12.57;5.60;;;;;;;;;;4997024;28;20050;-71
2023/04/06 12:23:40;;;;;;;14.38;6.07;;;;;;;;;;4983859;28;20049;-69
2023/04/06 12:26:14;;;;;;;13.50;5.50;;;;;;;;;;4992403;28;20058;-69
2023/04/06 12:28:44;;;;;;;13.25;5.28;;;;;;;;;;4993919;28;20144;-70
2023/04/06 12:31:17;;;;;;;12.80;4.85;;;;;;;;;;4990787;28;20069;-70
2023/04/06 12:33:47;;;;;;;11.55;4.85;;;;;;;;;;4986931;28;20053;-70
2023/04/06 12:36:15;;;;;;;12.65;4.68;;;;;;;;;;4990013;28;20058;-70
2023/04/06 12:38:45;;;;;;;11.65;5.25;;;;;;;;;;4993975;28;20060;-71
2023/04/06 12:41:12;;;;;;;9.55;4.68;;;;;;;;;;4973342;28;20188;-72
2023/04/06 12:43:39;;;;;;;10.25;4.43;;;;;;;;;;4994404;28;20073;-73
2023/04/06 12:46:09;;;;;;;10.85;4.78;;;;;;;;;;4954804;28;20049;-71
2023/04/06 12:48:36;;;;;;;12.38;4.60;;;;;;;;;;4993181;28;20106;-71
2023/04/06 12:51:06;;;;;;;9.43;4.07;;;;;;;;;;4962238;28;20061;-70
2023/04/06 12:53:35;;;;;;;10.88;4.55;;;;;;;;;;4974319;28;20065;-71
2023/04/06 12:56:12;;;;;;;12.50;4.18;;;;;;;;;;4962332;28;20098;-71
2023/04/06 12:58:39;;;;;;;10.43;4.15;;;;;;;;;;4966859;28;20077;-70
2023/04/06 13:01:07;;;;;;;10.55;4.50;;;;;;;;;;4960170;28;20046;-70
2023/04/06 13:03:36;;;;;;;8.48;3.72;;;;;;;;;;4987547;28;20050;-72
2023/04/06 13:06:11;;;;;;;10.60;4.45;;;;;;;;;;4968108;28;20149;-71
2023/04/06 13:08:38;;;;;;;8.95;4.35;;;;;;;;;;4992256;28;20058;-72
2023/04/06 13:11:14;;;;;;;10.40;4.10;;;;;;;;;;4978691;28;20058;-74
2023/04/06 13:13:41;;;;;;;8.50;3.80;;;;;;;;;;4992466;28;20061;-73
2023/04/06 13:16:11;;;;;;;9.25;3.78;;;;;;;;;;4985585;28;20161;-74
2023/04/06 13:18:47;;;;;;;9.10;3.90;;;;;;;;;;4986779;28;20056;-71
2023/04/06 13:21:16;;;;;;;8.82;3.78;;;;;;;;;;4980552;28;20054;-73
2023/04/06 13:23:45;;;;;;;10.88;4.60;;;;;;;;;;4979128;28;20073;-72
2023/04/06 13:26:16;;;;;;;9.02;3.88;;;;;;;;;;4986169;28;20142;-72
2023/04/06 13:28:44;;;;;;;11.27;4.40;;;;;;;;;;4988357;28;20146;-70
2023/04/06 13:31:11;;;;;;;;;;;;;;;;;;4989212;28;20050;-72
2023/04/06 13:33:51;;;;;;;8.32;3.90;;;;;;;;;;4989192;28;19931;-73
2023/04/06 13:36:26;;;;;;;9.32;3.92;;;;;;;;;;5007590;28;20056;-71
2023/04/06 13:38:55;;;;;;;8.32;3.58;;;;;;;;;;4975988;28;20056;-72
2023/04/06 13:41:22;;;;;;;9.80;4.22;;;;;;;;;;4995524;28;20062;-74
2023/04/06 13:43:53;;;;;;;8.38;3.58;;;;;;;;;;4983661;28;20119;-71
2023/04/06 13:46:23;;;;;;;8.98;3.90;;;;;;;;;;4969014;28;20049;-74
2023/04/06 13:48:53;;;;;;;8.48;3.67;;;;;;;;;;4983254;28;20046;-70
2023/04/06 13:51:20;;;;;;;8.43;3.88;;;;;;;;;;5015007;28;20057;-71
2023/04/06 13:53:52;;;;;;;11.50;4.13;;;;;;;;;;4987882;28;20054;-69
2023/04/06 13:56:19;;;;;;;8.55;3.92;;;;;;;;;;4998306;28;20089;-72
2023/04/06 13:58:51;;;;;;;9.30;4.07;;;;;;;;;;4975340;28;20062;-73
2023/04/06 14:01:23;;;;;;;9.77;4.18;;;;;;;;;;4990671;28;20078;-72
2023/04/06 14:03:49;;;;;;;;;;;;;;;;;;4983119;28;20058;-73
2023/04/06 14:06:16;;;;;;;7.53;3.10;;;;;;;;;;4992178;28;20016;-73
2023/04/06 14:08:47;;;;;;;9.73;3.95;;;;;;;;;;4988122;28;20053;-73
2023/04/06 14:11:16;;;;;;;8.20;3.40;;;;;;;;;;4995517;28;20163;-74
2023/04/06 14:13:46;;;;;;;10.60;3.78;;;;;;;;;;4993165;28;20057;-72
2023/04/06 14:16:19;;;;;;;9.70;4.00;;;;;;;;;;4996416;28;20050;-72
2023/04/06 14:18:50;;;;;;;12.30;3.85;;;;;;;;;;4983158;28;20085;-73
2023/04/06 14:21:18;;;;;;;7.03;3.58;;;;;;;;;;4977811;28;20146;-72
2023/04/06 14:23:52;;;;;;;10.32;4.10;;;;;;;;;;4982153;28;20069;-69
2023/04/06 14:26:20;;;;;;;8.82;3.67;;;;;;;;;;4997520;28;20064;-72
2023/04/06 14:28:47;;;;;;;8.60;3.60;;;;;;;;;;4983419;28;20109;-75
2023/04/06 14:31:17;;;;;;;11.38;4.25;;;;;;;;;;4980385;28;20062;-73
2023/04/06 14:33:52;;;;;;;7.90;3.45;;;;;;;;;;4981006;28;20063;-72
2023/04/06 14:36:21;;;;;;;9.10;4.10;;;;;;;;;;4965017;28;20136;-75
2023/04/06 14:38:53;;;;;;;9.48;4.13;;;;;;;;;;4999700;28;20057;-73
2023/04/06 14:41:25;;;;;;;10.15;4.10;;;;;;;;;;5007470;28;20111;-72